Terminal Aerodrome Forecast
Issued by NWS

Home | Current Version | Previous Version | Graphics & Text | Print | Product List | Glossary On
Versions: 1 2 3 4 5 6 7 8 9 10 11 12 13 14 15
000
FTUS43 KMPX 022338
TAFRNH
TAF
KRNH 022338Z 0300/0324 17013G20KT P6SM BKN150 BKN250
     FM030800 16012KT P6SM VCSH BKN040
     FM031300 16011KT 5SM -SHRA VCTS BKN015CB OVC035
     FM031600 17009KT P6SM OVC025
     FM031900 17008KT P6SM BKN035 PROB30 0319/0324 SHRA=

USA.gov is the U.S. government's official web portal to all federal, state and local government web resources and services.